Terminal Aerodrome Forecast
Issued by NWS

Home | Current Version | Previous Version | Text Only | Print | Product List | Glossary On
Versions: 1 2 3 4 5 6 7 8 9 10 11 12 13 14 15 16 17 18 19 20
000
FTUS43 KMPX 281621 AAA
TAFRWF
TAF AMD
KRWF 281621Z 2816/2912 15015KT 5SM BR OVC006
     FM282100 17009KT P6SM OVC009
     FM290200 32012G19KT P6SM OVC008
     FM290700 32020G30KT P6SM OVC012=

USA.gov is the U.S. government's official web portal to all federal, state and local government web resources and services.